メインページ
METAR-TAF:

METAR-TAF

空港 :

東京 / 羽田国際空港, 日本

東京国際空港

緯度: 35-33N, 経度: 139-47E, 海抜: 5m

現時点の気象観測

当レポートは42分前の23:00(UTC)に作成
北東の風 8kt
気温 3°C
湿度 48%
気圧 1022 hPa
視程10km以上
高度3000ftの雲はほとんどない
高度5000ftの千切れ雲あり
千切れ雲あり

METAR: RJTT 182300Z 05008KT 9999 FEW030 BKN050 BKN/// 03/M07 Q1022 NOSIG RMK 1CU030 6SC050 A3018

時間: 08:42 (23:42 UTC)

予報

当レポートは37分前の23:05(UTC)に作成
予報は19日の 00時(UTC)から 20日の 06時(UTC)まで有効
北東の風 8kt
視程10km以上
高度3000ftの雲はほとんどない
19日の 02時(UTC)から 19日の 04時(UTC)まで徐々に
の風 8kt
19日の 12時(UTC)から 19日の 15時(UTC)まで徐々に
の風 10kt
20日の 03時(UTC)から 20日の 06時(UTC)まで徐々に
東/南東の風 6kt

TAF: RJTT 182305Z 1900/2006 04008KT 9999 FEW030 BECMG 1902/1904 18008KT BECMG 1912/1915 36010KT BECMG 2003/2006 12006KT

4,000以上の空港の気象観測と天気予報(METAR報とTAF報)

利用可能な観測所は地図上に黄色い丸と赤い丸で示す。

丸の上にカーソルを重ねると観測所名を参照できる。

次にクリックすると気象観測と天気予報を参照できる。

マップの切り替え:黒色「×」印の緑ボタンをクリックして拡大、「-」印の緑ボタンをクリックして縮小、緑色の三角印をクリックして隣りの地図に切り替え


METAR-TAF: